Flight Number: EUR1561 Duration: 6:00
Departure: Jeddah King Abdul Aziz (OEJN) at 00:00 Distance: 2544 Nm
Arrival: Gatwick Airport (EGKK) at 06:00 Equipment: B777

Weather Information
Jeddah King Abdul Aziz International Airport , Saudi Arabia (OEJN) 21-42N 039-11E 17M Sep 21, 2017 - 10:00 AM EDT / 2017.09.21 1400 UTC
Wind: from the NNW (330 degrees) at 16 MPH (14 KT):0
Visibility: greater than 7 mile(s):0 Temperature: 93 F (34 C) Heat index: 104.5 F (40.3 C):1 Dew Point: 75 F (24 C) Relative Humidity: 56% Pressure (altimeter): 29.65 in. Hg (1004 hPa)
ob: OEJN 211400Z 33014KT CAVOK 34/24 Q1004 NOSIG cycle: 14
Sunrise: 03:14 Sunset: 15:18 (UTC)

London / Gatwick Airport, United Kingdom (EGKK) 51-09N 000-11W 0M Sep 21, 2017 - 09:50 AM EDT / 2017.09.21 1350 UTC
Wind: from the SSW (200 degrees) at 10 MPH (9 KT) (direction variable):0
Visibility: greater than 7 mile(s):0
Sky conditions: mostly cloudy Temperature: 62 F (17 C) Dew Point: 53 F (12 C) Relative Humidity: 72% Pressure (altimeter): 29.94 in. Hg (1014 hPa)
ob: EGKK 211350Z 20009KT 150V230 9999 BKN021 BKN038 17/12 Q1014 cycle: 14
Sunrise: 05:50 Sunset: 17:57 (UTC)

TAF:2017/09/21 12:15 TAF EGKK 211056Z 2112/2218 20012KT 9999 SCT030 TEMPO 2113/2118 8000 -RA BKN012 PROB30 TEMPO 2114/2117 4000 RA BKN008 BECMG 2116/2119 28005KT BECMG 2122/2201 7000 TEMPO 2201/2208 3000 BR BCFG PROB40 2203/2208 0400 FG BKN001 BECMG 2208/2211 9999

Previous Pireps for this route
Date Aircraft Flight time Fuel used Landing rate On time
2015-04-03B757-20007.2210Charter
2016-01-26B7775.32155672-391Yes
2016-05-15B7776.091367440Charter
(pireps marked green are flown by you)

Route map